Time;durP1;ratioP1;P1;durP2;ratioP2;P2;SDS_P1;SDS_P2;PMS_P1;PMS_P2;Temp;Humidity;BMP_temperature;BMP_pressure;BME280_temperature;BME280_humidity;BME280_pressure;Samples;Min_cycle;Max_cycle;Signal;HPM_P1;HPM_P2
2024/04/04 00:00:14;;;;;;;4.13;0.80;;;;;;;10.72;100.00;98523.41;4976422;28;20114;-61
2024/04/04 00:02:39;;;;;;;6.32;0.70;;;;;;;10.71;100.00;98524.41;4988066;28;20386;-61
2024/04/04 00:05:05;;;;;;;1.85;0.70;;;;;;;10.70;100.00;98524.66;4986923;28;20019;-61
2024/04/04 00:07:31;;;;;;;3.00;0.50;;;;;;;10.68;100.00;98519.44;4986976;28;20463;-61
2024/04/04 00:09:57;;;;;;;3.00;0.70;;;;;;;10.71;100.00;98505.47;4989358;28;20026;-61
2024/04/04 00:12:25;;;;;;;2.60;0.70;;;;;;;10.71;100.00;98513.59;4983494;28;20026;-61
2024/04/04 00:14:50;;;;;;;3.50;0.70;;;;;;;10.76;100.00;98523.78;4992851;28;20040;-61
2024/04/04 00:17:16;;;;;;;3.38;0.85;;;;;;;10.74;100.00;98515.91;4976922;28;20035;-60
2024/04/04 00:19:41;;;;;;;3.13;0.68;;;;;;;10.81;100.00;98520.47;4986747;28;20037;-60
2024/04/04 00:22:07;;;;;;;2.97;0.70;;;;;;;10.78;100.00;98516.28;4982264;28;20035;-60
2024/04/04 00:24:32;;;;;;;2.08;0.60;;;;;;;10.76;100.00;98518.38;4991797;28;20034;-60
2024/04/04 00:26:58;;;;;;;2.72;0.55;;;;;;;10.77;100.00;98527.31;4992548;28;20221;-60
2024/04/04 00:29:24;;;;;;;3.13;0.75;;;;;;;10.75;100.00;98516.72;4991686;28;20426;-60
2024/04/04 00:31:49;;;;;;;3.47;0.77;;;;;;;10.71;100.00;98504.66;4985472;28;20065;-61
2024/04/04 00:34:15;;;;;;;7.15;0.70;;;;;;;10.80;100.00;98516.94;4983430;28;20490;-59
2024/04/04 00:36:40;;;;;;;4.53;0.75;;;;;;;10.81;100.00;98509.63;4984005;28;20770;-60
2024/04/04 00:39:06;;;;;;;6.38;0.90;;;;;;;10.90;100.00;98509.19;4983966;28;20532;-60
2024/04/04 00:41:31;;;;;;;5.05;0.88;;;;;;;10.91;100.00;98513.56;4992495;28;20023;-60
2024/04/04 00:43:57;;;;;;;3.33;0.55;;;;;;;10.99;100.00;98507.09;4985475;28;20423;-60
2024/04/04 00:46:24;;;;;;;6.07;1.27;;;;;;;11.01;100.00;98504.16;4992399;28;20041;-60
2024/04/04 00:48:50;;;;;;;3.05;1.17;;;;;;;11.00;100.00;98508.72;4983039;28;20057;-61
2024/04/04 00:51:16;;;;;;;3.03;0.85;;;;;;;11.06;100.00;98507.06;4981087;28;20045;-61
2024/04/04 00:53:41;;;;;;;5.22;0.82;;;;;;;11.06;100.00;98501.66;4989902;28;20360;-60
2024/04/04 00:56:07;;;;;;;2.83;0.95;;;;;;;11.06;100.00;98504.38;4990459;28;20727;-60
2024/04/04 00:58:35;;;;;;;1.40;0.38;;;;;;;11.05;100.00;98503.50;4988252;28;20025;-60
2024/04/04 01:01:01;;;;;;;1.92;0.70;;;;;;;11.05;100.00;98505.38;4989059;28;20026;-61
2024/04/04 01:03:26;;;;;;;1.90;0.43;;;;;;;11.05;100.00;98506.22;4984127;28;20034;-60
2024/04/04 01:05:51;;;;;;;6.78;1.00;;;;;;;11.06;100.00;98512.50;4984168;28;20032;-61
2024/04/04 01:08:18;;;;;;;3.35;0.90;;;;;;;11.00;100.00;98513.31;4987792;28;20022;-61
2024/04/04 01:10:43;;;;;;;3.22;0.60;;;;;;;10.97;100.00;98515.41;4981543;28;20618;-60
2024/04/04 01:13:10;;;;;;;2.05;0.70;;;;;;;10.91;100.00;98515.44;4988164;28;20522;-61
2024/04/04 01:15:35;;;;;;;3.90;1.20;;;;;;;10.87;100.00;98508.78;4989070;28;20131;-61
2024/04/04 01:18:01;;;;;;;3.72;0.77;;;;;;;10.82;100.00;98516.69;4973204;28;20115;-61
2024/04/04 01:20:26;;;;;;;5.45;1.10;;;;;;;10.73;100.00;98516.09;4986425;28;20040;-60
2024/04/04 01:22:51;;;;;;;3.33;0.90;;;;;;;10.63;100.00;98519.22;4988311;28;20101;-60
2024/04/04 01:25:17;;;;;;;4.57;0.90;;;;;;;10.62;100.00;98522.16;4981155;28;20027;-60
2024/04/04 01:27:42;;;;;;;3.67;0.88;;;;;;;10.63;100.00;98518.41;4977807;28;20751;-60
2024/04/04 01:30:09;;;;;;;7.57;1.10;;;;;;;10.55;100.00;98527.56;4985005;28;20311;-60
2024/04/04 01:32:35;;;;;;;5.85;1.10;;;;;;;10.44;100.00;98523.63;4979994;28;20073;-60
2024/04/04 01:35:01;;;;;;;4.38;1.35;;;;;;;10.33;100.00;98521.56;4994971;28;20022;-60
2024/04/04 01:37:26;;;;;;;3.40;1.13;;;;;;;10.40;100.00;98524.25;4987336;28;20130;-61
2024/04/04 01:39:52;;;;;;;8.50;1.17;;;;;;;10.39;100.00;98528.84;4990179;28;20084;-61
2024/04/04 01:42:17;;;;;;;4.63;1.10;;;;;;;10.31;100.00;98524.47;4979784;28;20042;-60
2024/04/04 01:44:42;;;;;;;7.15;1.13;;;;;;;10.35;100.00;98532.16;4989359;28;20022;-61
2024/04/04 01:47:08;;;;;;;2.65;0.80;;;;;;;10.36;100.00;98531.97;4984845;28;20836;-61
2024/04/04 01:49:33;;;;;;;2.70;0.73;;;;;;;10.38;100.00;98526.34;4982799;28;20031;-60
2024/04/04 01:51:58;;;;;;;7.18;1.40;;;;;;;10.34;100.00;98508.88;4983171;28;20036;-60
2024/04/04 01:54:24;;;;;;;3.60;1.10;;;;;;;10.42;100.00;98527.59;4979862;28;20065;-60
2024/04/04 01:56:50;;;;;;;4.68;1.35;;;;;;;10.48;100.00;98521.34;4987765;28;20073;-60
2024/04/04 01:59:15;;;;;;;4.68;1.20;;;;;;;10.51;100.00;98520.94;4973572;28;20390;-60
2024/04/04 02:01:41;;;;;;;4.35;1.20;;;;;;;10.51;100.00;98518.22;4986410;28;20033;-60
2024/04/04 02:04:06;;;;;;;3.03;0.90;;;;;;;10.53;100.00;98524.25;4980267;28;20042;-60
2024/04/04 02:06:32;;;;;;;4.90;1.70;;;;;;;10.56;100.00;98518.44;4983904;28;20045;-61
2024/04/04 02:08:57;;;;;;;5.47;1.33;;;;;;;10.57;100.00;98509.25;4985530;28;20030;-60
2024/04/04 02:11:22;;;;;;;3.42;1.10;;;;;;;10.60;100.00;98508.84;4984942;28;20031;-60
2024/04/04 02:13:48;;;;;;;4.53;1.25;;;;;;;10.61;100.00;98515.94;4988316;28;20096;-61
2024/04/04 02:16:13;;;;;;;5.78;1.27;;;;;;;10.56;100.00;98514.88;4985643;28;20113;-60
2024/04/04 02:18:39;;;;;;;2.75;1.10;;;;;;;10.56;100.00;98514.88;4996608;28;20034;-59
2024/04/04 02:21:04;;;;;;;3.03;1.00;;;;;;;10.45;100.00;98489.28;4988022;28;20046;-60
2024/04/04 02:23:30;;;;;;;3.80;1.40;;;;;;;10.48;100.00;98505.97;4992218;28;20029;-60
2024/04/04 02:25:57;;;;;;;4.30;0.93;;;;;;;10.48;100.00;98505.97;4990441;28;20037;-60
2024/04/04 02:28:23;;;;;;;3.97;1.15;;;;;;;10.50;100.00;98501.16;4978823;28;20027;-60
2024/04/04 02:30:48;;;;;;;3.25;1.00;;;;;;;10.37;100.00;98484.09;4987945;28;20097;-59
2024/04/04 02:33:14;;;;;;;3.60;0.88;;;;;;;10.48;100.00;98505.97;4988034;28;20059;-60
2024/04/04 02:35:39;;;;;;;6.18;0.95;;;;;;;10.48;100.00;98505.97;4990006;28;20023;-60
2024/04/04 02:38:06;;;;;;;9.90;1.60;;;;;;;10.52;100.00;98490.94;4980730;28;20107;-60
2024/04/04 02:40:33;;;;;;;3.38;0.80;;;;;;;10.58;100.00;98508.22;4989699;28;20413;-60
2024/04/04 02:42:58;;;;;;;8.13;1.00;;;;;;;10.59;100.00;98500.94;4987456;28;20057;-61
2024/04/04 02:45:24;;;;;;;3.53;1.00;;;;;;;10.59;100.00;98499.06;4990431;28;20112;-60
2024/04/04 02:47:49;;;;;;;3.63;0.80;;;;;;;10.63;100.00;98492.19;4981039;28;20038;-60
2024/04/04 02:50:15;;;;;;;2.42;0.60;;;;;;;10.67;100.00;98470.97;4983079;28;20037;-60
2024/04/04 02:52:40;;;;;;;3.65;0.68;;;;;;;10.69;100.00;98483.22;4987379;28;20023;-60
2024/04/04 02:55:05;;;;;;;1.45;0.70;;;;;;;10.74;100.00;98479.88;4988250;28;20441;-60
2024/04/04 02:57:31;;;;;;;2.05;0.60;;;;;;;10.77;100.00;98465.09;4987286;28;20514;-60
2024/04/04 02:59:56;;;;;;;2.53;0.60;;;;;;;10.79;100.00;98442.19;4987361;28;20026;-60
2024/04/04 03:02:22;;;;;;;3.35;0.50;;;;;;;10.91;100.00;98464.00;4988375;28;20038;-60
2024/04/04 03:04:48;;;;;;;3.38;0.50;;;;;;;10.86;100.00;98442.16;4986855;28;20366;-60
2024/04/04 03:07:13;;;;;;;1.65;0.47;;;;;;;10.93;100.00;98448.41;4980433;28;20136;-60
2024/04/04 03:09:38;;;;;;;3.08;0.60;;;;;;;10.91;100.00;98453.19;4981272;28;20038;-61
2024/04/04 03:12:04;;;;;;;5.88;0.80;;;;;;;10.93;100.00;98454.63;4991179;28;20024;-60
2024/04/04 03:14:30;;;;;;;2.92;0.70;;;;;;;10.92;100.00;98454.84;4984307;28;20391;-60
2024/04/04 03:16:55;;;;;;;2.05;0.40;;;;;;;10.90;100.00;98459.66;4989294;28;20030;-60
2024/04/04 03:19:21;;;;;;;4.03;0.68;;;;;;;10.85;100.00;98440.53;4986213;28;20067;-60
2024/04/04 03:21:46;;;;;;;4.72;0.98;;;;;;;10.95;100.00;98447.13;4988635;28;20121;-60
2024/04/04 03:24:12;;;;;;;5.75;0.70;;;;;;;10.90;100.00;98457.78;4982996;28;20066;-60
2024/04/04 03:26:37;;;;;;;2.75;0.60;;;;;;;10.85;100.00;98429.69;4973865;28;20038;-60
2024/04/04 03:29:02;;;;;;;3.38;0.60;;;;;;;10.89;100.00;98441.75;4989035;28;20022;-60
2024/04/04 03:31:28;;;;;;;2.88;0.57;;;;;;;10.98;100.00;98454.00;4979840;28;20379;-60
2024/04/04 03:33:54;;;;;;;6.40;0.70;;;;;;;11.02;100.00;98449.81;4996860;28;20034;-60
2024/04/04 03:36:20;;;;;;;1.92;0.70;;;;;;;11.06;100.00;98456.47;4977921;28;20118;-60
2024/04/04 03:38:45;;;;;;;5.65;0.98;;;;;;;10.93;100.00;98451.09;4981628;28;20026;-60
2024/04/04 03:41:11;;;;;;;4.70;0.85;;;;;;;10.88;100.00;98434.69;4982343;28;20089;-60
2024/04/04 03:43:36;;;;;;;2.50;0.73;;;;;;;10.89;100.00;98444.44;4981525;28;20038;-56
2024/04/04 03:46:03;;;;;;;1.48;0.60;;;;;;;10.92;100.00;98446.72;4988140;28;20537;-57
2024/04/04 03:48:28;;;;;;;2.15;0.55;;;;;;;10.95;100.00;98449.84;4984720;28;20031;-57
2024/04/04 03:50:53;;;;;;;3.78;0.68;;;;;;;10.96;100.00;98445.25;4992693;28;20569;-57
2024/04/04 03:53:19;;;;;;;2.60;0.63;;;;;;;11.00;100.00;98454.59;4988726;28;20034;-58
2024/04/04 03:55:44;;;;;;;2.75;0.68;;;;;;;10.97;100.00;98441.50;4987059;28;20105;-58
2024/04/04 03:58:09;;;;;;;1.73;0.50;;;;;;;10.94;100.00;98453.56;4985244;28;20037;-57
2024/04/04 04:00:35;;;;;;;3.03;0.50;;;;;;;10.86;100.00;98458.41;4988561;28;20134;-57
2024/04/04 04:03:01;;;;;;;4.93;0.68;;;;;;;10.79;100.00;98457.59;4982383;28;21791;-57
2024/04/04 04:05:26;;;;;;;3.53;0.75;;;;;;;10.72;100.00;98461.16;4982257;28;20026;-58
2024/04/04 04:07:51;;;;;;;1.67;0.95;;;;;;;10.67;100.00;98465.56;4980468;28;20081;-57
2024/04/04 04:10:18;;;;;;;2.58;0.80;;;;;;;10.58;100.00;98456.81;4978829;28;20519;-58
2024/04/04 04:12:43;;;;;;;2.90;0.82;;;;;;;10.59;100.00;98463.91;4988696;28;20062;-57
2024/04/04 04:15:08;;;;;;;3.00;0.80;;;;;;;10.58;100.00;98464.94;4982061;28;20474;-58
2024/04/04 04:17:34;;;;;;;1.13;0.45;;;;;;;10.61;100.00;98461.81;4984978;28;20046;-58
2024/04/04 04:19:59;;;;;;;3.97;0.60;;;;;;;10.63;100.00;98467.00;4988626;28;20041;-57
2024/04/04 04:22:25;;;;;;;5.00;0.77;;;;;;;10.63;100.00;98464.31;4985557;28;20022;-58
2024/04/04 04:24:50;;;;;;;2.90;0.55;;;;;;;10.61;100.00;98471.78;4979833;28;20029;-58
2024/04/04 04:27:16;;;;;;;1.50;0.43;;;;;;;10.58;100.00;98473.03;4986210;28;20042;-58
2024/04/04 04:29:41;;;;;;;2.22;0.60;;;;;;;10.58;100.00;98469.50;4980731;28;20040;-58
2024/04/04 04:32:07;;;;;;;1.48;0.50;;;;;;;10.52;100.00;98460.38;4987490;28;20030;-58
2024/04/04 04:34:32;;;;;;;2.03;0.70;;;;;;;10.50;100.00;98468.69;4984289;28;20042;-58
2024/04/04 04:37:03;;;;;;;1.85;0.60;;;;;;;10.50;100.00;98481.38;4977398;28;20030;-57
2024/04/04 04:39:29;;;;;;;3.63;0.73;;;;;;;10.55;100.00;98470.75;4977552;28;20073;-57
2024/04/04 04:41:55;;;;;;;1.42;0.40;;;;;;;10.59;100.00;98477.44;4978382;28;20058;-58
2024/04/04 04:44:21;;;;;;;2.65;0.50;;;;;;;10.62;100.00;98476.19;4979253;28;20470;-57
2024/04/04 04:46:46;;;;;;;4.72;0.70;;;;;;;10.59;100.00;98469.31;4977570;28;20041;-57
2024/04/04 04:49:11;;;;;;;2.95;0.57;;;;;;;10.51;100.00;98467.66;4978237;28;20501;-56
2024/04/04 04:51:38;;;;;;;0.98;0.60;;;;;;;10.55;100.00;98475.34;4981935;28;20029;-57
2024/04/04 04:54:04;;;;;;;2.20;0.60;;;;;;;10.57;100.00;98468.69;4983154;28;21026;-56
2024/04/04 04:56:30;;;;;;;3.70;0.68;;;;;;;10.61;100.00;98469.94;4973472;28;20026;-56
2024/04/04 04:58:55;;;;;;;1.85;0.40;;;;;;;10.60;100.00;98457.44;4986940;28;20354;-56
2024/04/04 05:01:20;;;;;;;1.92;0.50;;;;;;;10.76;100.00;98458.84;4981406;28;20077;-56
2024/04/04 05:03:46;;;;;;;2.45;0.60;;;;;;;10.82;100.00;98462.56;4977689;28;20090;-56
2024/04/04 05:06:12;;;;;;;2.92;0.60;;;;;;;10.90;100.00;98454.25;4989890;28;20084;-56
2024/04/04 05:08:37;;;;;;;1.42;0.32;;;;;;;10.93;100.00;98459.22;4984321;28;20379;-56
2024/04/04 05:11:03;;;;;;;2.28;0.38;;;;;;;11.00;100.00;98449.19;4982865;28;20023;-56
2024/04/04 05:13:28;;;;;;;1.33;0.47;;;;;;;11.07;100.00;98447.28;4977754;28;20117;-56
2024/04/04 05:15:55;;;;;;;3.10;0.40;;;;;;;11.11;100.00;98448.53;4973748;28;20114;-56
2024/04/04 05:18:22;;;;;;;1.38;0.63;;;;;;;11.20;100.00;98432.84;4986792;28;20026;-56
2024/04/04 05:20:47;;;;;;;1.55;0.45;;;;;;;11.20;100.00;98438.25;4984301;28;20034;-56
2024/04/04 05:23:12;;;;;;;4.30;0.80;;;;;;;11.18;100.00;98430.34;4988691;28;20039;-56
2024/04/04 05:25:51;;;;;;;5.35;0.68;;;;;;;11.23;100.00;98445.13;4983737;28;20093;-56
2024/04/04 05:28:51;;;;;;;1.80;0.55;;;;;;;11.15;100.00;98438.91;4981758;28;20050;-56
2024/04/04 05:31:17;;;;;;;2.47;0.38;;;;;;;11.16;100.00;98437.03;4982941;28;20140;-56
2024/04/04 05:33:42;;;;;;;1.73;0.45;;;;;;;11.24;100.00;98439.50;4978978;28;20118;-56
2024/04/04 05:36:07;;;;;;;2.38;0.60;;;;;;;11.37;100.00;98430.44;4981937;28;20038;-56
2024/04/04 05:38:33;;;;;;;4.22;0.95;;;;;;;11.44;100.00;98417.69;4984771;28;20065;-56
2024/04/04 05:41:04;;;;;;;5.63;0.43;;;;;;;11.66;100.00;98436.31;4974216;28;20030;-56
2024/04/04 05:43:29;;;;;;;4.13;0.50;;;;;;;11.65;100.00;98423.81;4982632;28;20049;-56
2024/04/04 05:45:55;;;;;;;1.58;0.30;;;;;;;11.67;100.00;98424.44;4976700;28;20023;-56
2024/04/04 05:48:20;;;;;;;1.85;0.40;;;;;;;11.67;100.00;98409.00;4984400;28;20054;-56
2024/04/04 05:50:45;;;;;;;1.38;0.50;;;;;;;11.85;100.00;98427.22;4984129;28;20069;-56
2024/04/04 05:53:11;;;;;;;1.45;0.38;;;;;;;11.76;100.00;98420.41;4991534;28;20088;-56
2024/04/04 05:55:36;;;;;;;1.30;0.38;;;;;;;11.77;100.00;98422.06;4982595;28;20019;-56
2024/04/04 05:58:02;;;;;;;2.85;0.40;;;;;;;11.76;100.00;98421.25;4986089;28;20064;-56
2024/04/04 06:00:27;;;;;;;1.88;0.30;;;;;;;11.75;100.00;98416.03;4989272;28;20031;-56
2024/04/04 06:02:53;;;;;;;2.33;0.45;;;;;;;11.76;100.00;98420.41;4982778;28;20037;-56
2024/04/04 06:05:18;;;;;;;1.38;0.55;;;;;;;11.75;100.00;98421.47;4984829;28;20113;-56
2024/04/04 06:07:43;;;;;;;2.53;0.50;;;;;;;11.77;100.00;98412.06;4984504;28;20132;-56
2024/04/04 06:10:09;;;;;;;4.70;0.57;;;;;;;11.78;100.00;98416.41;4985090;28;20049;-56
2024/04/04 06:12:34;;;;;;;5.00;0.70;;;;;;;11.87;100.00;98414.31;4978401;28;20023;-56
2024/04/04 06:15:00;;;;;;;3.65;0.70;;;;;;;11.97;100.00;98392.09;4988731;28;20037;-56
2024/04/04 06:17:25;;;;;;;2.40;0.60;;;;;;;13.93;100.00;98370.97;4988680;28;20035;-56
2024/04/04 06:19:51;;;;;;;1.95;0.40;;;;;;;17.88;100.00;98364.53;4985633;28;20030;-56
2024/04/04 06:22:16;;;;;;;2.40;0.70;;;;;;;19.02;100.00;98363.03;4989937;28;20031;-56
2024/04/04 06:24:41;;;;;;;4.32;0.70;;;;;;;18.56;100.00;98360.03;4988185;28;20021;-56
2024/04/04 06:27:07;;;;;;;2.03;0.40;;;;;;;19.85;100.00;98353.81;4993153;28;20033;-56
2024/04/04 06:29:41;;;;;;;3.92;0.85;;;;;;;18.61;100.00;98362.81;4987727;28;20034;-56
2024/04/04 06:32:06;;;;;;;5.10;0.80;;;;;;;17.23;100.00;98363.63;4991279;28;20022;-57
2024/04/04 06:34:33;;;;;;;2.33;0.60;;;;;;;15.67;100.00;98365.56;4979379;28;20149;-57
2024/04/04 06:36:59;;;;;;;3.00;0.80;;;;;;;15.63;100.00;98372.56;4991274;28;20494;-57
2024/04/04 06:39:24;;;;;;;4.28;0.40;;;;;;;18.76;100.00;98342.09;4982206;28;20108;-57
2024/04/04 06:41:50;;;;;;;2.55;0.68;;;;;;;20.76;100.00;98348.47;4989035;28;20033;-57
2024/04/04 06:44:15;;;;;;;4.57;0.93;;;;;;;22.07;100.00;98344.34;4988859;28;20038;-55
2024/04/04 06:46:41;;;;;;;1.92;0.57;;;;;;;24.10;88.78;98341.97;4985499;28;20049;-55
2024/04/04 06:49:07;;;;;;;4.07;0.70;;;;;;;22.74;87.29;98345.31;4986385;28;20034;-57
2024/04/04 06:51:32;;;;;;;3.05;0.68;;;;;;;19.08;100.00;98357.56;4981864;28;20038;-57
2024/04/04 06:53:58;;;;;;;4.70;0.80;;;;;;;17.80;100.00;98354.06;4983690;28;20080;-55
2024/04/04 06:56:23;;;;;;;3.30;0.60;;;;;;;16.78;100.00;98360.09;4993176;28;20030;-56
2024/04/04 06:58:49;;;;;;;4.22;0.68;;;;;;;16.11;100.00;98371.16;4997461;28;20343;-55
2024/04/04 07:01:14;;;;;;;7.00;1.05;;;;;;;15.77;100.00;98374.75;4981233;28;20019;-56
2024/04/04 07:03:39;;;;;;;7.95;0.70;;;;;;;15.43;100.00;98365.69;4985173;28;20118;-56
2024/04/04 07:06:05;;;;;;;4.72;1.10;;;;;;;15.42;100.00;98371.38;4989411;28;20065;-57
2024/04/04 07:08:31;;;;;;;4.50;0.77;;;;;;;16.24;100.00;98368.09;4981726;28;20097;-57
2024/04/04 07:11:05;;;;;;;5.55;0.85;;;;;;;19.75;100.00;98362.06;4977323;28;20042;-56
2024/04/04 07:13:35;;;;;;;5.38;0.73;;;;;;;20.78;100.00;98365.50;4988813;28;20473;-57
2024/04/04 07:16:06;;;;;;;5.88;1.00;;;;;;;19.36;100.00;98367.19;4984451;28;20030;-57
2024/04/04 07:18:32;;;;;;;4.65;0.75;;;;;;;21.51;100.00;98361.28;4980743;28;20027;-57
2024/04/04 07:20:57;;;;;;;5.45;0.85;;;;;;;24.00;90.99;98356.78;4991505;28;20383;-57
2024/04/04 07:23:22;;;;;;;4.28;0.80;;;;;;;25.16;79.29;98353.25;4984463;28;20381;-56
2024/04/04 07:25:52;;;;;;;3.67;0.80;;;;;;;24.99;78.65;98362.94;4985214;28;20030;-57
2024/04/04 07:28:19;;;;;;;4.93;0.88;;;;;;;22.87;83.74;98359.47;4983985;28;20459;-57
2024/04/04 07:30:45;;;;;;;4.10;1.10;;;;;;;21.71;87.87;98366.66;4990491;28;20037;-57
2024/04/04 07:33:10;;;;;;;4.18;0.90;;;;;;;20.74;100.00;98359.72;4987940;28;20035;-57
2024/04/04 07:35:37;;;;;;;6.07;0.90;;;;;;;19.07;100.00;98370.41;4991757;28;20026;-57
2024/04/04 07:38:05;;;;;;;6.80;1.50;;;;;;;17.66;100.00;98364.59;4985789;28;20029;-56
2024/04/04 07:40:34;;;;;;;5.93;1.10;;;;;;;16.49;100.00;98377.72;4983004;28;20034;-56
2024/04/04 07:42:59;;;;;;;4.45;0.88;;;;;;;15.71;100.00;98375.72;4987866;28;20074;-56
2024/04/04 07:45:25;;;;;;;7.28;0.77;;;;;;;15.30;100.00;98394.06;4983072;28;20042;-56
2024/04/04 07:47:51;;;;;;;5.53;1.05;;;;;;;15.19;100.00;98375.03;4980084;28;20022;-56
2024/04/04 07:50:16;;;;;;;8.13;0.73;;;;;;;15.07;100.00;98400.44;4983392;28;20030;-56
2024/04/04 07:52:42;;;;;;;5.35;0.70;;;;;;;15.01;100.00;98387.78;4987256;28;20154;-56
2024/04/04 07:55:07;;;;;;;6.68;0.85;;;;;;;14.88;100.00;98407.09;4982725;28;20450;-56
2024/04/04 07:57:33;;;;;;;6.20;0.70;;;;;;;14.68;100.00;98392.00;4990076;28;20100;-56
2024/04/04 07:59:58;;;;;;;9.02;1.00;;;;;;;14.74;100.00;98405.75;4987296;28;20110;-56
2024/04/04 08:02:26;;;;;;;7.15;1.20;;;;;;;14.81;100.00;98404.53;4987381;28;20405;-56
2024/04/04 08:04:52;;;;;;;3.80;0.70;;;;;;;14.65;100.00;98405.28;4983256;28;20137;-56
2024/04/04 08:07:17;;;;;;;4.90;1.13;;;;;;;14.42;100.00;98406.09;4984347;28;20085;-56
2024/04/04 08:09:43;;;;;;;3.63;0.63;;;;;;;14.52;100.00;98411.78;4981721;28;20042;-56
2024/04/04 08:12:12;;;;;;;5.22;0.98;;;;;;;14.71;100.00;98415.22;4979687;28;20050;-56
2024/04/04 08:14:37;;;;;;;5.78;0.70;;;;;;;14.64;100.00;98412.59;4981817;28;20026;-56
2024/04/04 08:17:03;;;;;;;4.50;0.75;;;;;;;14.83;100.00;98421.47;4980561;28;20065;-56
2024/04/04 08:19:28;;;;;;;6.60;1.17;;;;;;;14.78;100.00;98424.09;4994976;28;20035;-56
2024/04/04 08:21:54;;;;;;;6.70;1.00;;;;;;;14.77;100.00;98425.13;4983152;28;20080;-56
2024/04/04 08:24:19;;;;;;;8.35;0.88;;;;;;;14.80;100.00;98434.72;4988997;28;20156;-56
2024/04/04 08:26:47;;;;;;;8.48;0.82;;;;;;;14.56;100.00;98429.31;4972560;28;21362;-56
2024/04/04 08:29:14;;;;;;;5.55;1.17;;;;;;;14.65;100.00;98427.91;4985903;28;20387;-56
2024/04/04 08:31:40;;;;;;;7.28;1.10;;;;;;;14.59;100.00;98431.59;4986143;28;20030;-56
2024/04/04 08:34:06;;;;;;;5.95;0.77;;;;;;;14.66;100.00;98429.53;4983450;28;20037;-57
2024/04/04 08:36:31;;;;;;;6.25;1.40;;;;;;;14.41;100.00;98407.19;4984436;28;20022;-56
2024/04/04 08:38:57;;;;;;;9.00;0.93;;;;;;;14.35;100.00;98440.78;4982045;28;20029;-56
2024/04/04 08:41:23;;;;;;;3.55;0.80;;;;;;;14.24;100.00;98442.44;4993469;28;20029;-56
2024/04/04 08:43:49;;;;;;;5.22;0.90;;;;;;;14.21;100.00;98457.34;4982206;28;20032;-56
2024/04/04 08:46:15;;;;;;;7.82;1.25;;;;;;;14.04;100.00;98456.34;4984647;28;20465;-56
2024/04/04 08:48:40;;;;;;;6.70;0.93;;;;;;;13.84;100.00;98447.72;4986326;28;20094;-56
2024/04/04 08:51:08;;;;;;;5.32;0.93;;;;;;;13.68;100.00;98470.97;4988770;28;20069;-56
2024/04/04 08:53:33;;;;;;;7.03;0.95;;;;;;;13.58;100.00;98471.50;4977516;28;20475;-56
2024/04/04 08:55:59;;;;;;;5.18;1.05;;;;;;;13.56;100.00;98474.44;4974836;28;20059;-56
2024/04/04 08:58:26;;;;;;;6.20;1.02;;;;;;;13.56;100.00;98474.44;4979269;28;20030;-56
2024/04/04 09:00:52;;;;;;;4.50;0.65;;;;;;;13.63;100.00;98474.38;4981462;28;20475;-56
2024/04/04 09:03:19;;;;;;;3.63;0.93;;;;;;;13.88;100.00;98467.91;4991187;28;20030;-56
2024/04/04 09:05:52;;;;;;;3.58;0.93;;;;;;;14.06;100.00;98464.31;4980733;28;20034;-57
2024/04/04 09:08:18;;;;;;;7.70;1.40;;;;;;;14.04;100.00;98442.75;4983789;28;20026;-58
2024/04/04 09:10:50;;;;;;;3.92;0.75;;;;;;;13.96;100.00;98437.66;4982402;28;20449;-58
2024/04/04 09:13:17;;;;;;;5.82;1.02;;;;;;;13.56;100.00;98382.03;4976140;28;20372;-57
2024/04/04 09:15:42;;;;;;;6.00;0.98;;;;;;;13.79;100.00;98454.66;4980461;28;20104;-57
2024/04/04 09:18:12;;;;;;;3.78;1.30;;;;;;;13.52;100.00;98426.25;4983658;28;20475;-58
2024/04/04 09:20:38;;;;;;;;;;;;;;;13.85;100.00;98482.81;4987348;28;20034;-58
2024/04/04 09:23:06;;;;;;;17.20;5.22;;;;;;;13.37;100.00;98441.06;4980876;28;19992;-58
2024/04/04 09:25:33;;;;;;;15.03;5.57;;;;;;;13.43;100.00;98446.63;4987302;28;20023;-58
2024/04/04 09:27:59;;;;;;;19.00;6.82;;;;;;;13.73;100.00;98490.13;4993635;28;20478;-58
2024/04/04 09:30:27;;;;;;;5.20;1.42;;;;;;;13.58;100.00;98472.34;4987718;28;20038;-56
2024/04/04 09:32:54;;;;;;;8.07;2.15;;;;;;;13.70;100.00;98496.00;4974891;28;20483;-56
2024/04/04 09:35:20;;;;;;;6.03;1.70;;;;;;;13.65;100.00;98499.44;4983704;28;20042;-57
2024/04/04 09:37:47;;;;;;;8.52;1.67;;;;;;;13.59;100.00;98497.63;4979857;28;20022;-57
2024/04/04 09:40:13;;;;;;;6.10;1.85;;;;;;;13.37;100.00;98508.16;4987754;28;20030;-57
2024/04/04 09:42:41;;;;;;;5.47;1.40;;;;;;;13.32;100.00;98506.13;4989136;28;20019;-57
2024/04/04 09:45:11;;;;;;;4.28;1.40;;;;;;;13.42;100.00;98504.78;4978745;28;20035;-57
2024/04/04 09:47:48;;;;;;;6.20;1.33;;;;;;;13.37;100.00;98513.59;4981377;28;20027;-57
2024/04/04 09:50:18;;;;;;;3.85;0.93;;;;;;;13.29;100.00;98520.19;4985582;28;20030;-58
2024/04/04 09:52:44;;;;;;;5.30;1.13;;;;;;;13.42;100.00;98515.63;4986869;28;20062;-58
2024/04/04 09:55:12;;;;;;;7.07;1.00;;;;;;;13.44;100.00;98522.50;4985590;28;20034;-58
2024/04/04 09:57:39;;;;;;;8.57;1.42;;;;;;;13.37;100.00;98525.28;4987050;28;20483;-57
2024/04/04 10:00:16;;;;;;;7.07;1.20;;;;;;;13.19;100.00;98522.56;4989545;28;20034;-57
2024/04/04 10:02:54;;;;;;;7.53;1.50;;;;;;;13.26;100.00;98523.34;4982405;28;20031;-64
2024/04/04 10:05:33;;;;;;;4.80;1.08;;;;;;;13.06;100.00;98525.44;4978013;28;20030;-64
2024/04/04 10:08:11;;;;;;;;;;;;;;;13.09;100.00;98519.53;4984586;28;20054;-63
2024/04/04 10:10:38;;;;;;;6.70;0.80;;;;;;;13.28;100.00;98526.69;4987330;28;19918;-64
2024/04/04 10:13:08;;;;;;;3.47;1.08;;;;;;;13.42;100.00;98511.03;4986186;28;20459;-63
2024/04/04 10:15:44;;;;;;;2.58;0.95;;;;;;;13.43;100.00;98517.28;4983423;28;20030;-63
2024/04/04 10:18:11;;;;;;;4.03;0.80;;;;;;;13.50;100.00;98524.31;4986110;28;21243;-63
2024/04/04 10:20:42;;;;;;;7.03;1.20;;;;;;;13.44;100.00;98519.78;4983373;28;20394;-63
2024/04/04 10:23:13;;;;;;;9.40;1.27;;;;;;;13.52;100.00;98522.19;4984789;28;20034;-63
2024/04/04 10:25:42;;;;;;;4.93;1.27;;;;;;;13.46;100.00;98520.38;4978168;28;20705;-63
2024/04/04 10:28:08;;;;;;;4.18;1.17;;;;;;;13.40;100.00;98523.19;4976996;28;20479;-63
2024/04/04 10:30:35;;;;;;;5.43;1.10;;;;;;;13.37;100.00;98536.16;4983074;28;20027;-63
2024/04/04 10:33:13;;;;;;;8.57;1.00;;;;;;;13.29;100.00;98544.63;4987861;28;20064;-62
2024/04/04 10:35:39;;;;;;;7.85;1.27;;;;;;;13.29;100.00;98544.63;4972164;28;20033;-63
2024/04/04 10:38:12;;;;;;;5.53;1.10;;;;;;;13.29;100.00;98544.63;4984349;28;20030;-64
2024/04/04 10:40:38;;;;;;;10.75;1.70;;;;;;;13.25;100.00;98534.41;4991574;28;20037;-63
2024/04/04 10:43:04;;;;;;;5.65;0.90;;;;;;;13.38;100.00;98532.38;4982916;28;20077;-63
2024/04/04 10:45:30;;;;;;;4.32;1.23;;;;;;;13.52;100.00;98519.47;4987681;28;20464;-63
2024/04/04 10:47:56;;;;;;;7.05;1.08;;;;;;;13.82;100.00;98526.78;4982397;28;20106;-63
2024/04/04 10:50:22;;;;;;;7.70;1.13;;;;;;;13.99;100.00;98518.78;4990467;28;20061;-63
2024/04/04 10:52:48;;;;;;;5.80;1.20;;;;;;;13.95;100.00;98512.19;4983327;28;20054;-63
2024/04/04 10:55:14;;;;;;;6.32;1.38;;;;;;;13.82;100.00;98502.31;4988647;28;20382;-63
2024/04/04 10:58:09;;;;;;;5.63;1.02;;;;;;;13.65;100.00;98504.88;4982989;28;20026;-63
2024/04/04 11:00:35;;;;;;;9.60;1.27;;;;;;;13.43;100.00;98490.13;4981335;28;20018;-63
2024/04/04 11:03:03;;;;;;;6.85;0.85;;;;;;;13.42;100.00;98488.47;4985867;28;20535;-63
2024/04/04 11:05:28;;;;;;;4.78;0.90;;;;;;;13.37;100.00;98497.28;4985910;28;20032;-63
2024/04/04 11:07:59;;;;;;;7.10;1.00;;;;;;;13.28;100.00;98485.94;4983534;28;20022;-63
2024/04/04 11:10:26;;;;;;;7.53;1.08;;;;;;;13.28;100.00;98491.34;4991053;28;20543;-63
2024/04/04 11:12:51;;;;;;;5.97;1.25;;;;;;;13.35;100.00;98475.78;4986928;28;20034;-62
2024/04/04 11:15:17;;;;;;;9.75;1.00;;;;;;;13.57;100.00;98478.00;4985895;28;20378;-62
2024/04/04 11:17:42;;;;;;;7.78;1.00;;;;;;;13.85;100.00;98474.66;4989526;28;20105;-62
2024/04/04 11:20:08;;;;;;;6.70;1.00;;;;;;;14.09;100.00;98472.81;4983308;28;20081;-63
2024/04/04 11:22:37;;;;;;;5.57;1.10;;;;;;;14.28;100.00;98468.13;4978356;28;20034;-62